Time;durP1;ratioP1;P1;durP2;ratioP2;P2;SDS_P1;SDS_P2;PMS_P1;PMS_P2;Temp;Humidity;BMP_temperature;BMP_pressure;BME280_temperature;BME280_humidity;BME280_pressure;Samples;Min_cycle;Max_cycle;Signal;HPM_P1;HPM_P2
2021/01/24 00:00:50;;;;;;;18.80;17.13;;;;;;;6.34;62.85;99481.03;4924702;29;20390;-81
2021/01/24 00:03:17;;;;;;;17.98;16.55;;;;;;;6.36;62.80;99487.06;4923978;29;20087;-80
2021/01/24 00:05:43;;;;;;;14.30;12.90;;;;;;;6.40;62.77;99482.94;4925448;29;20036;-80
2021/01/24 00:08:10;;;;;;;15.25;13.90;;;;;;;6.43;62.61;99487.09;4925766;29;20354;-80
2021/01/24 00:10:35;;;;;;;13.30;11.85;;;;;;;6.45;62.52;99490.44;4925239;29;20086;-80
2021/01/24 00:13:01;;;;;;;14.82;13.50;;;;;;;6.45;62.62;99487.72;4924984;29;20486;-80
2021/01/24 00:15:27;;;;;;;14.00;12.40;;;;;;;6.44;62.66;99492.31;4923448;29;20048;-80
2021/01/24 00:17:52;;;;;;;14.40;13.20;;;;;;;6.45;62.59;99485.03;4919074;29;20040;-79
2021/01/24 00:20:17;;;;;;;18.98;17.40;;;;;;;6.47;62.84;99482.94;4916837;29;20047;-80
2021/01/24 00:22:43;;;;;;;13.95;12.35;;;;;;;6.46;62.61;99484.00;4910539;29;20020;-80
2021/01/24 00:25:09;;;;;;;19.23;17.58;;;;;;;6.50;62.58;99490.63;4905792;29;20459;-80
2021/01/24 00:27:34;;;;;;;13.60;12.45;;;;;;;6.48;62.67;99478.41;4925743;29;20041;-80
2021/01/24 00:30:03;;;;;;;21.75;20.08;;;;;;;6.50;62.86;99484.41;4911743;29;20048;-80
2021/01/24 00:32:28;;;;;;;15.65;14.38;;;;;;;6.55;62.86;99490.03;4926843;29;20039;-80
2021/01/24 00:34:54;;;;;;;20.33;18.73;;;;;;;6.56;62.86;99481.72;4924520;29;20036;-79
2021/01/24 00:37:19;;;;;;;16.70;15.43;;;;;;;6.56;62.96;99480.91;4928382;29;20040;-80
2021/01/24 00:39:45;;;;;;;10.48;9.73;;;;;;;6.57;62.73;99479.88;4919589;29;20047;-80
2021/01/24 00:42:10;;;;;;;15.60;14.52;;;;;;;6.59;62.73;99488.59;4904007;29;20039;-80
2021/01/24 00:44:35;;;;;;;13.20;12.05;;;;;;;6.54;62.58;99483.81;4922564;29;20028;-80
2021/01/24 00:47:03;;;;;;;12.02;11.02;;;;;;;6.57;62.68;99490.69;4922837;29;20032;-79
2021/01/24 00:49:31;;;;;;;10.57;9.73;;;;;;;6.60;62.55;99488.41;4907214;29;20032;-80
2021/01/24 00:51:57;;;;;;;13.65;12.75;;;;;;;6.59;62.74;99485.91;4924779;29;20040;-80
2021/01/24 00:54:22;;;;;;;11.82;10.93;;;;;;;6.65;62.48;99487.78;4918808;29;20038;-80
2021/01/24 00:56:48;;;;;;;14.70;13.73;;;;;;;6.71;62.43;99486.97;4905864;29;20424;-80
2021/01/24 00:59:13;;;;;;;15.77;14.65;;;;;;;6.73;62.51;99490.28;4910940;29;20483;-80
2021/01/24 01:01:38;;;;;;;15.75;14.55;;;;;;;6.63;62.38;99469.06;4925202;29;20050;-81
2021/01/24 01:04:06;;;;;;;17.45;16.35;;;;;;;6.71;62.24;99495.06;4913626;29;20065;-80
2021/01/24 01:06:32;;;;;;;11.60;10.70;;;;;;;6.71;62.33;99486.97;4906988;29;20515;-80
2021/01/24 01:08:58;;;;;;;11.88;10.75;;;;;;;6.69;62.44;99486.34;4930069;29;20126;-80
2021/01/24 01:11:23;;;;;;;9.23;8.68;;;;;;;6.72;62.38;99485.09;4924652;29;20784;-80
2021/01/24 01:13:49;;;;;;;12.55;11.65;;;;;;;6.66;62.29;99483.19;4929849;29;20031;-80
2021/01/24 01:16:14;;;;;;;11.88;11.05;;;;;;;6.66;62.45;99484.06;4910151;29;20035;-80
2021/01/24 01:18:40;;;;;;;9.95;9.35;;;;;;;6.66;62.53;99489.44;4928914;29;20495;-80
2021/01/24 01:21:05;;;;;;;20.88;19.55;;;;;;;6.68;62.83;99491.94;4928602;29;20031;-81
2021/01/24 01:23:30;;;;;;;12.77;12.00;;;;;;;6.64;62.46;99496.91;4924808;29;20063;-80
2021/01/24 01:25:56;;;;;;;16.92;15.90;;;;;;;6.64;62.40;99491.50;4914196;29;20040;-81
2021/01/24 01:28:22;;;;;;;13.98;12.98;;;;;;;6.65;62.42;99500.47;4933264;29;20185;-81
2021/01/24 01:30:48;;;;;;;13.85;13.05;;;;;;;6.62;62.45;99501.69;4930242;29;20039;-80
2021/01/24 01:33:14;;;;;;;13.65;12.80;;;;;;;6.63;62.41;99506.91;4930956;29;20074;-80
2021/01/24 01:35:40;;;;;;;11.13;10.20;;;;;;;6.62;62.46;99510.63;4930471;29;20158;-80
2021/01/24 01:38:05;;;;;;;9.45;8.80;;;;;;;6.63;62.57;99516.88;4910995;29;20039;-80
2021/01/24 01:40:31;;;;;;;10.13;9.23;;;;;;;6.63;62.71;99519.56;4923093;29;20040;-80
2021/01/24 01:42:57;;;;;;;8.95;8.27;;;;;;;6.60;62.62;99518.09;4922510;29;20031;-80
2021/01/24 01:45:23;;;;;;;10.73;9.88;;;;;;;6.63;62.63;99519.56;4925264;29;20096;-80
2021/01/24 01:47:49;;;;;;;8.60;7.88;;;;;;;6.59;62.87;99524.53;4930573;29;20020;-80
2021/01/24 01:50:18;;;;;;;8.90;7.70;;;;;;;6.63;62.67;99527.69;4920945;29;20095;-81
2021/01/24 01:52:44;;;;;;;12.32;11.43;;;;;;;6.60;62.72;99528.91;4931766;29;20039;-81
2021/01/24 01:55:10;;;;;;;14.38;13.32;;;;;;;6.59;62.64;99531.81;4920427;29;20100;-80
2021/01/24 01:57:36;;;;;;;8.38;7.68;;;;;;;6.58;62.75;99538.25;4913738;29;20537;-80
2021/01/24 02:00:01;;;;;;;7.43;7.00;;;;;;;6.55;62.79;99544.03;4926592;29;20483;-80
2021/01/24 02:02:44;;;;;;;9.73;9.13;;;;;;;6.55;62.61;99533.25;4925484;29;20475;-80
2021/01/24 02:05:18;;;;;;;6.55;6.15;;;;;;;6.54;62.80;99539.69;4924685;29;20122;-80
2021/01/24 02:07:43;;;;;;;7.93;7.20;;;;;;;6.55;62.74;99534.09;4912295;29;20043;-81
2021/01/24 02:10:53;;;;;;;6.90;6.32;;;;;;;6.50;63.25;99535.72;4940148;29;20051;-81
2021/01/24 02:13:53;;;;;;;7.90;7.50;;;;;;;6.47;63.48;99538.84;4926877;29;20804;-80
2021/01/24 02:16:19;;;;;;;6.22;5.63;;;;;;;6.54;63.23;99542.41;4933860;29;20074;-81
2021/01/24 02:18:47;;;;;;;5.20;4.55;;;;;;;6.55;63.21;99547.59;4929874;29;20525;-80
2021/01/24 02:21:32;;;;;;;10.65;9.85;;;;;;;6.57;63.05;99547.41;4925390;29;20403;-81
2021/01/24 02:24:03;;;;;;;16.67;15.55;;;;;;;6.61;62.89;99548.63;4927604;29;20027;-81
2021/01/24 02:26:52;;;;;;;12.15;11.35;;;;;;;6.62;62.81;99553.84;4929792;29;20138;-81
2021/01/24 02:29:37;;;;;;;7.65;7.05;;;;;;;6.60;63.24;99550.53;4929530;29;20036;-80
2021/01/24 02:32:05;;;;;;;9.73;9.13;;;;;;;6.68;62.87;99560.31;4937984;29;20821;-81
2021/01/24 02:34:35;;;;;;;11.20;10.50;;;;;;;6.67;62.87;99550.53;4926921;29;20023;-81
2021/01/24 02:37:03;;;;;;;10.80;10.10;;;;;;;6.74;62.90;99564.91;4926684;29;20043;-80
2021/01/24 02:39:30;;;;;;;6.07;5.55;;;;;;;6.75;62.96;99574.69;4914603;29;20048;-81
2021/01/24 02:41:55;;;;;;;5.20;4.70;;;;;;;6.81;63.02;99579.28;4927740;29;20036;-81
2021/01/24 02:44:22;;;;;;;4.15;2.63;;;;;;;6.88;62.46;99582.00;4927065;29;20752;-80
2021/01/24 02:46:48;;;;;;;6.15;5.32;;;;;;;6.78;63.22;99587.78;4928317;29;20042;-81
2021/01/24 02:49:14;;;;;;;7.50;6.88;;;;;;;6.59;63.98;99596.63;4913359;29;20040;-82
2021/01/24 02:51:41;;;;;;;7.00;6.43;;;;;;;6.72;63.45;99585.91;4934728;29;20042;-81
2021/01/24 02:54:07;;;;;;;4.18;3.83;;;;;;;6.69;63.59;99594.41;4932979;29;20032;-81
2021/01/24 02:56:33;;;;;;;5.47;4.95;;;;;;;6.88;63.15;99600.91;4928282;29;20259;-81
2021/01/24 02:59:00;;;;;;;10.32;9.73;;;;;;;6.62;64.04;99597.06;4922888;29;20036;-81
2021/01/24 03:01:25;;;;;;;7.35;6.57;;;;;;;6.73;63.89;99606.44;4926412;29;20450;-82
2021/01/24 03:03:51;;;;;;;5.32;4.53;;;;;;;6.78;63.98;99614.81;4923424;29;20052;-81
2021/01/24 03:06:17;;;;;;;6.05;5.55;;;;;;;6.49;64.66;99598.88;4927365;29;20035;-82
2021/01/24 03:08:42;;;;;;;5.38;5.00;;;;;;;6.58;64.69;99617.44;4929094;29;20095;-82
2021/01/24 03:11:11;;;;;;;4.05;3.80;;;;;;;6.82;63.88;99612.53;4927714;29;20499;-81
2021/01/24 03:13:48;;;;;;;8.35;5.15;;;;;;;6.90;63.44;99616.91;4929900;29;20062;-83
2021/01/24 03:16:16;;;;;;;6.45;5.85;;;;;;;6.93;63.15;99616.50;4908686;29;20415;-82
2021/01/24 03:18:44;;;;;;;8.98;8.32;;;;;;;6.73;63.38;99621.84;4923300;29;20024;-82
2021/01/24 03:21:11;;;;;;;4.85;4.43;;;;;;;6.43;64.50;99611.31;4917247;29;20836;-82
2021/01/24 03:23:38;;;;;;;5.53;5.13;;;;;;;6.68;63.70;99608.94;4927679;29;20829;-83
2021/01/24 03:26:05;;;;;;;6.13;5.82;;;;;;;6.60;64.05;99617.22;4925497;29;20099;-83
2021/01/24 03:28:35;;;;;;;5.88;5.55;;;;;;;6.71;63.26;99616.63;4913786;29;20035;-82
2021/01/24 03:31:02;;;;;;;7.93;7.63;;;;;;;6.65;63.22;99625.56;4926528;29;20140;-82
2021/01/24 03:33:28;;;;;;;6.13;5.82;;;;;;;6.76;63.12;99626.84;4925981;29;20128;-82
2021/01/24 03:35:53;;;;;;;5.22;4.93;;;;;;;6.75;63.03;99641.38;4937312;29;20044;-82
2021/01/24 03:38:19;;;;;;;3.97;3.78;;;;;;;6.60;63.17;99636.13;4909449;29;20040;-82
2021/01/24 03:40:44;;;;;;;3.90;3.63;;;;;;;6.74;62.96;99645.13;4915509;29;20874;-83
2021/01/24 03:43:10;;;;;;;3.60;3.25;;;;;;;6.68;62.80;99649.47;4907725;29;20436;-82
2021/01/24 03:45:35;;;;;;;4.85;4.65;;;;;;;6.69;62.99;99651.13;4892311;29;20064;-82
2021/01/24 03:48:00;;;;;;;5.38;5.07;;;;;;;6.68;62.80;99645.94;4902687;29;20448;-82
2021/01/24 03:50:26;;;;;;;8.32;7.93;;;;;;;6.68;62.89;99645.94;4910460;29;20040;-82
2021/01/24 03:52:51;;;;;;;8.13;7.63;;;;;;;6.61;63.05;99646.75;4909305;29;20032;-82
2021/01/24 03:55:17;;;;;;;4.03;3.83;;;;;;;6.59;62.99;99647.97;4890392;29;20044;-82
2021/01/24 03:57:42;;;;;;;6.63;6.22;;;;;;;6.65;63.27;99657.16;4893345;29;20082;-82
2021/01/24 04:00:08;;;;;;;8.48;7.85;;;;;;;6.65;63.03;99657.16;4907724;29;20840;-82
2021/01/24 04:02:34;;;;;;;8.73;8.32;;;;;;;6.66;63.15;99656.09;4906711;29;20404;-83
2021/01/24 04:04:59;;;;;;;10.57;10.05;;;;;;;6.62;63.30;99663.78;4881085;29;20032;-82
2021/01/24 04:07:24;;;;;;;7.72;7.38;;;;;;;6.64;63.53;99667.09;4877550;29;20063;-83
2021/01/24 04:09:50;;;;;;;7.40;7.10;;;;;;;6.66;63.61;99673.16;4891508;29;20538;-83
2021/01/24 04:12:15;;;;;;;9.40;8.90;;;;;;;6.63;63.66;99676.25;4913342;29;20032;-82
2021/01/24 04:14:41;;;;;;;11.38;10.77;;;;;;;6.63;63.74;99676.25;4902602;29;20403;-83
2021/01/24 04:17:06;;;;;;;16.33;15.30;;;;;;;6.63;63.91;99681.66;4912590;29;20047;-82
2021/01/24 04:19:32;;;;;;;11.73;11.02;;;;;;;6.72;63.42;99683.16;4897024;29;20032;-82
2021/01/24 04:21:57;;;;;;;14.43;13.65;;;;;;;6.73;63.68;99687.50;4896664;29;20040;-83
2021/01/24 04:24:23;;;;;;;11.65;10.82;;;;;;;6.75;63.38;99682.75;4893870;29;20463;-82
2021/01/24 04:26:50;;;;;;;16.48;15.57;;;;;;;6.70;63.54;99698.72;4910554;29;20036;-83
2021/01/24 04:29:15;;;;;;;18.95;17.88;;;;;;;6.75;63.40;99690.88;4896040;29;20044;-82
2021/01/24 04:31:40;;;;;;;15.68;14.65;;;;;;;6.81;63.35;99690.06;4912892;29;20043;-83
2021/01/24 04:34:06;;;;;;;21.52;20.05;;;;;;;6.78;63.32;99684.22;4897331;29;20024;-83
2021/01/24 04:36:31;;;;;;;15.43;14.52;;;;;;;6.81;63.24;99683.81;4912429;29;20544;-82
2021/01/24 04:38:56;;;;;;;12.38;11.68;;;;;;;6.77;63.06;99677.97;4913059;29;20046;-82
2021/01/24 04:41:22;;;;;;;16.15;15.35;;;;;;;6.75;62.97;99684.59;4914014;29;20048;-83
2021/01/24 04:43:49;;;;;;;14.10;13.18;;;;;;;6.73;63.00;99681.28;4913502;29;20032;-82
2021/01/24 04:46:14;;;;;;;9.80;9.38;;;;;;;6.67;63.00;99687.47;4896187;29;20111;-82
2021/01/24 04:48:40;;;;;;;12.65;11.98;;;;;;;6.60;62.88;99690.16;4913453;29;20125;-82
2021/01/24 04:51:06;;;;;;;13.32;12.52;;;;;;;6.51;62.84;99686.78;4913822;29;20087;-82
2021/01/24 04:53:32;;;;;;;13.27;12.48;;;;;;;6.49;62.75;99690.69;4912163;29;20028;-82
2021/01/24 04:55:59;;;;;;;17.83;16.92;;;;;;;6.42;62.93;99699.59;4913299;29;20763;-82
2021/01/24 04:58:25;;;;;;;15.20;14.40;;;;;;;6.40;63.00;99698.13;4890449;29;20039;-82
2021/01/24 05:00:51;;;;;;;17.27;16.27;;;;;;;6.37;62.90;99704.75;4902327;29;20036;-82
2021/01/24 05:03:16;;;;;;;17.33;16.52;;;;;;;6.31;63.04;99702.84;4909043;29;20144;-82
2021/01/24 05:05:42;;;;;;;10.27;9.75;;;;;;;6.22;62.96;99704.84;4903495;29;20029;-82
2021/01/24 05:08:11;;;;;;;13.77;13.10;;;;;;;6.18;63.16;99702.75;4905966;29;20159;-82
2021/01/24 05:10:36;;;;;;;18.52;17.42;;;;;;;6.09;62.97;99700.19;4913821;29;20027;-82
2021/01/24 05:13:02;;;;;;;15.00;14.25;;;;;;;6.09;62.78;99700.19;4895757;29;20036;-82
2021/01/24 05:15:28;;;;;;;21.10;19.90;;;;;;;6.07;62.99;99704.97;4913413;29;20096;-82
2021/01/24 05:17:54;;;;;;;17.25;16.25;;;;;;;6.01;62.95;99697.66;4918431;29;20064;-82
2021/01/24 05:20:21;;;;;;;11.30;10.55;;;;;;;5.95;63.03;99695.69;4914533;29;20044;-82
2021/01/24 05:22:47;;;;;;;11.57;10.90;;;;;;;5.91;62.98;99695.22;4910536;29;20025;-81
2021/01/24 05:25:16;;;;;;;16.08;15.18;;;;;;;5.86;62.86;99704.94;4914497;29;20104;-81
2021/01/24 05:27:42;;;;;;;14.55;13.75;;;;;;;5.77;62.99;99693.44;4914200;29;20028;-81
2021/01/24 05:30:08;;;;;;;10.85;10.25;;;;;;;5.76;63.05;99702.56;4914120;29;20036;-81
2021/01/24 05:32:42;;;;;;;17.10;16.10;;;;;;;5.70;62.80;99706.03;4895630;29;20033;-81
2021/01/24 05:35:12;;;;;;;15.02;14.13;;;;;;;5.68;63.07;99700.81;4908365;29;20063;-81
2021/01/24 05:37:39;;;;;;;10.50;9.65;;;;;;;5.64;63.13;99701.41;4913925;29;20080;-81
2021/01/24 05:40:07;;;;;;;14.77;14.02;;;;;;;5.59;63.11;99707.38;4920908;28;20499;-81
2021/01/24 05:42:39;;;;;;;10.38;9.85;;;;;;;5.55;63.00;99700.72;4913653;29;20042;-81
2021/01/24 05:45:09;;;;;;;16.10;15.18;;;;;;;5.50;63.00;99708.53;4933788;29;20036;-81
2021/01/24 05:47:36;;;;;;;13.82;13.02;;;;;;;5.49;62.92;99706.88;4930212;29;20076;-81
2021/01/24 05:50:05;;;;;;;15.15;14.27;;;;;;;5.45;63.10;99714.50;4926278;29;20038;-81
2021/01/24 05:52:31;;;;;;;17.88;16.85;;;;;;;5.46;63.13;99718.03;4927917;29;20172;-81
2021/01/24 05:54:56;;;;;;;28.88;27.17;;;;;;;5.43;63.01;99713.03;4915946;29;20462;-81
2021/01/24 05:57:24;;;;;;;20.48;19.25;;;;;;;5.38;63.16;99719.81;4927763;29;20036;-80
2021/01/24 05:59:54;;;;;;;9.65;8.95;;;;;;;5.36;63.05;99718.34;4932307;29;20035;-80
2021/01/24 06:02:21;;;;;;;8.60;8.00;;;;;;;5.32;63.08;99719.75;4928452;29;20054;-80
2021/01/24 06:04:48;;;;;;;9.68;9.18;;;;;;;5.31;63.12;99731.56;4918175;29;20490;-81
2021/01/24 06:07:13;;;;;;;7.32;6.85;;;;;;;5.31;63.15;99736.94;4928449;29;20039;-81
2021/01/24 06:09:39;;;;;;;7.45;6.90;;;;;;;5.28;63.12;99730.06;4929456;29;20047;-81
2021/01/24 06:12:07;;;;;;;4.55;3.72;;;;;;;5.23;63.19;99727.13;4929609;29;20039;-81
2021/01/24 06:14:34;;;;;;;5.32;4.93;;;;;;;5.23;62.97;99735.19;4928607;29;20031;-81
2021/01/24 06:17:17;;;;;;;10.77;10.07;;;;;;;5.15;63.11;99727.22;4926831;29;20051;-81
2021/01/24 06:19:49;;;;;;;11.90;11.25;;;;;;;5.13;63.21;99732.81;4928347;29;20035;-81
2021/01/24 06:22:18;;;;;;;10.80;10.20;;;;;;;5.11;63.27;99742.09;4930870;29;20030;-81
2021/01/24 06:24:56;;;;;;;9.65;9.15;;;;;;;5.14;62.95;99753.34;4928631;29;20031;-81
2021/01/24 06:27:25;;;;;;;19.10;18.00;;;;;;;5.11;63.13;99755.56;4928664;29;20034;-81
2021/01/24 06:29:52;;;;;;;19.23;18.17;;;;;;;5.03;63.13;99748.44;4913068;29;20047;-81
2021/01/24 06:32:30;;;;;;;28.20;26.40;;;;;;;5.02;62.97;99755.69;4916728;29;20115;-81
2021/01/24 06:35:13;;;;;;;22.15;20.98;;;;;;;4.97;62.97;99755.41;4927121;29;20028;-80
2021/01/24 06:37:45;;;;;;;25.25;23.67;;;;;;;4.90;63.05;99757.19;4913374;29;20062;-80
2021/01/24 06:40:20;;;;;;;29.17;27.40;;;;;;;4.84;63.13;99752.53;4923851;29;20069;-80
2021/01/24 06:42:46;;;;;;;15.82;15.00;;;;;;;4.81;63.10;99758.28;4930402;29;20039;-81
2021/01/24 06:45:32;;;;;;;16.17;15.18;;;;;;;4.81;63.22;99763.69;4925851;29;20043;-81
2021/01/24 06:48:01;;;;;;;16.25;15.23;;;;;;;4.89;63.52;99765.44;4916728;29;20103;-80
2021/01/24 06:50:46;;;;;;;16.02;15.07;;;;;;;4.90;63.71;99778.72;4923230;29;20043;-80
2021/01/24 06:53:19;;;;;;;9.63;8.93;;;;;;;4.94;63.29;99776.50;4921188;29;20495;-80
2021/01/24 06:55:53;;;;;;;12.40;11.45;;;;;;;4.94;63.33;99782.72;4909108;29;20059;-80
2021/01/24 06:58:47;;;;;;;25.63;24.13;;;;;;;5.01;63.38;99786.34;4928419;29;20035;-80
2021/01/24 07:01:35;;;;;;;16.52;15.48;;;;;;;5.02;64.89;99790.72;4922612;29;20067;-82
2021/01/24 07:04:25;;;;;;;14.20;13.15;;;;;;;5.27;65.05;99795.81;4931432;29;20055;-81
2021/01/24 07:06:54;;;;;;;15.32;13.88;;;;;;;5.28;65.25;99808.25;4927652;29;20042;-82
2021/01/24 07:09:41;;;;;;;13.35;11.65;;;;;;;5.38;65.19;99810.66;4928950;29;20035;-82
2021/01/24 07:12:07;;;;;;;14.55;13.55;;;;;;;5.59;64.52;99804.47;4910368;29;20035;-81
2021/01/24 07:14:32;;;;;;;11.82;10.95;;;;;;;5.58;64.69;99821.69;4930767;29;20071;-81
2021/01/24 07:17:00;;;;;;;15.02;13.18;;;;;;;5.62;64.40;99804.09;4926157;29;20483;-81
2021/01/24 07:19:27;;;;;;;11.82;10.40;;;;;;;5.67;63.96;99812.47;4930647;29;20032;-81
2021/01/24 07:21:53;;;;;;;11.05;8.35;;;;;;;5.67;63.83;99817.88;4930530;29;20046;-80
2021/01/24 07:24:19;;;;;;;8.50;8.00;;;;;;;5.64;63.65;99818.25;4925641;29;20672;-81
2021/01/24 07:26:46;;;;;;;18.20;17.10;;;;;;;5.54;63.15;99826.59;4922882;29;20035;-81
2021/01/24 07:29:17;;;;;;;10.00;9.35;;;;;;;5.48;63.33;99823.84;4931684;29;20035;-80
2021/01/24 07:31:43;;;;;;;;;;;;;;;5.36;63.45;99839.66;4931542;29;20058;-80
2021/01/24 07:34:08;;;;;;;10.68;10.02;;;;;;;5.32;63.20;99830.28;4928550;29;20675;-80
2021/01/24 07:36:34;;;;;;;12.32;11.27;;;;;;;5.25;63.33;99843.69;4922960;28;20036;-80
2021/01/24 07:39:00;;;;;;;15.02;13.73;;;;;;;5.18;63.54;99846.28;4929209;29;20119;-80
2021/01/24 07:41:26;;;;;;;15.25;14.13;;;;;;;5.10;63.39;99842.84;4932661;29;20047;-81
2021/01/24 07:43:52;;;;;;;18.00;16.75;;;;;;;5.08;63.35;99844.88;4928978;29;20031;-81
2021/01/24 07:46:17;;;;;;;16.10;14.88;;;;;;;4.99;63.14;99844.97;4929388;29;20119;-81
2021/01/24 07:48:43;;;;;;;17.02;15.88;;;;;;;4.97;63.36;99844.31;4897369;29;20035;-81
2021/01/24 07:51:08;;;;;;;11.93;10.85;;;;;;;4.93;63.41;99850.28;4929544;29;20075;-82
2021/01/24 07:53:34;;;;;;;18.70;17.48;;;;;;;4.94;63.45;99847.41;4929044;29;20031;-81
2021/01/24 07:56:00;;;;;;;12.00;11.30;;;;;;;4.88;63.74;99840.03;4928777;29;20111;-81
2021/01/24 07:58:26;;;;;;;9.82;9.02;;;;;;;4.93;63.40;99850.28;4929392;29;20447;-81
2021/01/24 08:00:52;;;;;;;7.05;6.50;;;;;;;4.89;63.45;99847.09;4926730;29;20031;-79
2021/01/24 08:03:21;;;;;;;9.77;9.18;;;;;;;4.81;63.34;99834.53;4920104;29;20517;-79
2021/01/24 08:05:47;;;;;;;8.48;7.88;;;;;;;4.80;63.00;99846.34;4925710;29;20043;-80
2021/01/24 08:08:13;;;;;;;10.88;10.07;;;;;;;4.80;63.32;99848.19;4909521;29;20040;-79
2021/01/24 08:10:38;;;;;;;9.85;9.15;;;;;;;4.76;63.16;99853.13;4932431;29;20055;-79
2021/01/24 08:13:04;;;;;;;11.13;10.48;;;;;;;4.80;63.23;99848.19;4924228;29;20036;-79
2021/01/24 08:15:29;;;;;;;13.35;12.38;;;;;;;4.88;63.28;99850.81;4902416;29;20062;-80
2021/01/24 08:17:57;;;;;;;14.60;13.52;;;;;;;5.03;63.74;99866.97;4924073;29;20040;-80
2021/01/24 08:20:24;;;;;;;12.80;11.85;;;;;;;5.32;64.40;99874.25;4924532;29;20055;-80
2021/01/24 08:22:50;;;;;;;8.95;8.20;;;;;;;5.61;64.67;99875.25;4927933;29;20043;-80
2021/01/24 08:25:16;;;;;;;8.13;7.43;;;;;;;5.66;64.39;99869.31;4919755;29;20024;-81
2021/01/24 08:27:47;;;;;;;14.60;13.73;;;;;;;5.98;62.63;99862.66;4925217;29;20079;-82
2021/01/24 08:30:13;;;;;;;15.20;14.40;;;;;;;6.36;61.47;99875.06;4926230;29;20367;-81
2021/01/24 08:32:43;;;;;;;7.32;7.03;;;;;;;6.47;60.69;99876.41;4925800;29;20550;-81
2021/01/24 08:35:09;;;;;;;10.15;9.65;;;;;;;6.46;60.12;99872.91;4924230;29;20491;-81
2021/01/24 08:37:38;;;;;;;7.43;7.10;;;;;;;6.39;60.29;99858.47;4925142;29;20080;-81
2021/01/24 08:40:05;;;;;;;13.38;12.73;;;;;;;6.38;60.33;99865.75;4905542;29;20067;-81
2021/01/24 08:42:50;;;;;;;17.92;16.88;;;;;;;6.36;60.26;99875.91;4909587;29;20642;-81
2021/01/24 08:45:20;;;;;;;6.70;6.20;;;;;;;6.33;60.50;99878.97;4924214;29;20055;-81
2021/01/24 08:47:57;;;;;;;9.60;8.93;;;;;;;6.99;62.12;99886.81;4928554;29;20068;-81
2021/01/24 08:50:23;;;;;;;4.65;4.32;;;;;;;8.92;61.12;99887.75;4908736;29;20376;-81
2021/01/24 08:52:59;;;;;;;4.60;4.40;;;;;;;10.52;57.44;99878.22;4928927;29;20055;-81
2021/01/24 08:55:26;;;;;;;8.45;7.82;;;;;;;11.89;53.46;99881.88;4931402;29;20418;-81
2021/01/24 08:57:52;;;;;;;4.85;4.40;;;;;;;12.88;50.00;99887.81;4911666;29;20483;-82
2021/01/24 09:00:18;;;;;;;4.53;4.18;;;;;;;13.40;49.92;99894.50;4913491;29;20038;-82
2021/01/24 09:02:43;;;;;;;5.40;3.85;;;;;;;13.86;49.02;99897.41;4912715;29;20110;-82
2021/01/24 09:05:30;;;;;;;3.08;2.78;;;;;;;14.68;47.14;99902.56;4929147;29;20126;-82
2021/01/24 09:07:56;;;;;;;3.58;3.30;;;;;;;15.46;43.24;99901.03;4926183;29;20034;-82
2021/01/24 09:10:25;;;;;;;9.73;2.85;;;;;;;15.00;42.77;99910.22;4927993;29;20035;-82
2021/01/24 09:12:53;;;;;;;4.30;2.95;;;;;;;13.03;43.10;99916.56;4910208;29;20388;-83
2021/01/24 09:15:20;;;;;;;6.55;4.93;;;;;;;11.98;45.95;99915.97;4926818;29;20066;-82
2021/01/24 09:17:47;;;;;;;6.43;4.70;;;;;;;11.25;48.49;99923.00;4921254;29;20148;-82
2021/01/24 09:20:13;;;;;;;7.15;4.57;;;;;;;10.48;49.98;99917.75;4907670;29;20046;-82
2021/01/24 09:22:39;;;;;;;3.75;2.72;;;;;;;10.22;51.60;99916.81;4928263;29;20392;-82
2021/01/24 09:25:05;;;;;;;8.20;4.55;;;;;;;9.83;52.50;99913.22;4928409;29;20429;-83
2021/01/24 09:27:31;;;;;;;10.45;5.43;;;;;;;9.54;53.45;99909.97;4926997;29;20035;-83
2021/01/24 09:29:56;;;;;;;11.70;6.35;;;;;;;9.45;54.32;99932.94;4911425;29;20036;-84
2021/01/24 09:32:21;;;;;;;6.03;5.63;;;;;;;9.46;54.86;99937.34;4928957;29;20383;-84
2021/01/24 09:34:47;;;;;;;9.27;5.70;;;;;;;9.37;55.77;99935.91;4912992;29;20055;-84
2021/01/24 09:37:12;;;;;;;6.53;5.88;;;;;;;9.31;55.45;99937.56;4930077;29;20042;-85
2021/01/24 09:39:38;;;;;;;5.00;4.28;;;;;;;9.14;55.27;99942.59;4883202;29;20067;-85
2021/01/24 09:42:03;;;;;;;8.45;6.45;;;;;;;8.89;56.02;99942.38;4910574;29;20039;-84
2021/01/24 09:44:29;;;;;;;8.93;4.78;;;;;;;8.60;56.19;99939.88;4923235;29;20043;-84
2021/01/24 09:46:54;;;;;;;7.32;5.47;;;;;;;8.53;56.73;99947.13;4923554;29;20068;-84
2021/01/24 09:49:20;;;;;;;10.50;9.73;;;;;;;8.50;56.90;99939.41;4930415;29;20431;-84
2021/01/24 09:51:45;;;;;;;7.90;7.30;;;;;;;8.41;57.38;99938.72;4911457;29;20091;-84
2021/01/24 09:54:14;;;;;;;13.80;12.48;;;;;;;8.32;57.44;99952.69;4911652;29;20043;-84
2021/01/24 09:56:40;;;;;;;9.20;8.63;;;;;;;8.37;57.44;99947.47;4929371;29;20039;-83
2021/01/24 09:59:05;;;;;;;10.10;9.15;;;;;;;8.38;57.52;99943.72;4895994;29;20043;-83
2021/01/24 10:01:30;;;;;;;14.35;13.25;;;;;;;8.52;57.22;99948.16;4910220;29;20087;-83
2021/01/24 10:03:56;;;;;;;8.90;8.10;;;;;;;8.56;57.17;99941.31;4928458;29;20434;-83
2021/01/24 10:06:21;;;;;;;9.77;8.82;;;;;;;8.66;57.21;99954.44;4927583;29;20043;-83
2021/01/24 10:08:47;;;;;;;7.85;7.35;;;;;;;8.69;57.68;99939.66;4929455;29;20106;-83
2021/01/24 10:11:13;;;;;;;10.93;10.18;;;;;;;8.71;57.26;99937.56;4925879;29;20038;-83
2021/01/24 10:13:39;;;;;;;5.78;5.18;;;;;;;9.76;57.97;99945.00;4922685;29;20040;-84
2021/01/24 10:16:05;;;;;;;3.97;3.67;;;;;;;10.65;55.74;99943.34;4927022;29;20471;-83
2021/01/24 10:18:30;;;;;;;4.80;3.83;;;;;;;11.40;54.52;99944.44;4922794;29;20047;-84
2021/01/24 10:20:56;;;;;;;4.32;4.07;;;;;;;12.53;50.91;99937.66;4925880;29;20044;-84
2021/01/24 10:23:21;;;;;;;5.65;5.10;;;;;;;13.42;49.28;99945.09;4931470;29;20509;-84
2021/01/24 10:25:52;;;;;;;4.95;4.38;;;;;;;13.97;46.60;99945.75;4929291;29;20459;-84
2021/01/24 10:28:18;;;;;;;5.13;4.63;;;;;;;14.21;45.44;99945.69;4926074;29;20044;-84
2021/01/24 10:30:45;;;;;;;5.88;4.57;;;;;;;14.33;44.56;99944.59;4910173;29;20534;-85
2021/01/24 10:33:11;;;;;;;6.05;3.75;;;;;;;14.80;44.62;99942.75;4926003;29;20442;-84
2021/01/24 10:35:37;;;;;;;4.07;3.72;;;;;;;15.20;43.10;99950.81;4922287;29;20035;-85
2021/01/24 10:38:04;;;;;;;5.47;2.95;;;;;;;15.42;41.95;99943.75;4925264;29;20032;-85
2021/01/24 10:40:29;;;;;;;3.10;2.50;;;;;;;15.56;41.70;99945.03;4919958;29;20059;-85
2021/01/24 10:42:56;;;;;;;3.80;3.22;;;;;;;15.24;41.90;99945.66;4924742;29;20046;-85
2021/01/24 10:45:23;;;;;;;4.40;2.80;;;;;;;14.87;42.19;99951.59;4906686;29;20562;-85
2021/01/24 10:47:48;;;;;;;5.50;2.70;;;;;;;14.85;42.03;99946.38;4923137;29;20027;-84
2021/01/24 10:50:14;;;;;;;4.93;3.30;;;;;;;14.61;41.21;99948.44;4925419;29;20146;-85
2021/01/24 10:52:39;;;;;;;4.97;3.30;;;;;;;13.80;43.24;99945.66;4924796;29;20452;-85
2021/01/24 10:55:05;;;;;;;6.47;3.15;;;;;;;13.15;44.58;99939.22;4922371;29;20047;-86
2021/01/24 10:57:30;;;;;;;8.10;4.47;;;;;;;12.75;45.82;99934.41;4922723;29;20495;-85
2021/01/24 10:59:56;;;;;;;4.55;3.97;;;;;;;12.24;46.57;99927.59;4909374;29;20087;-84
2021/01/24 11:02:21;;;;;;;5.43;3.60;;;;;;;11.79;47.49;99939.66;4923861;29;20031;-85
2021/01/24 11:04:47;;;;;;;4.22;3.42;;;;;;;11.70;48.12;99933.66;4923300;29;20058;-84
2021/01/24 11:07:12;;;;;;;8.20;4.07;;;;;;;11.61;47.47;99940.44;4910315;29;20398;-84
2021/01/24 11:09:38;;;;;;;6.85;3.40;;;;;;;11.53;48.08;99941.59;4925408;29;20036;-84
2021/01/24 11:12:03;;;;;;;10.95;4.15;;;;;;;12.15;47.93;99932.53;4912278;29;20046;-85
2021/01/24 11:14:29;;;;;;;5.35;3.78;;;;;;;11.98;46.85;99932.31;4909917;29;20058;-85
2021/01/24 11:16:54;;;;;;;4.72;2.55;;;;;;;12.23;47.08;99939.56;4908774;29;20043;-85
2021/01/24 11:19:20;;;;;;;7.22;4.57;;;;;;;12.35;46.30;99938.53;4905088;29;21516;-86
2021/01/24 11:21:46;;;;;;;6.00;3.97;;;;;;;12.44;45.86;99936.31;4927473;29;20046;-86
2021/01/24 11:24:12;;;;;;;4.93;3.55;;;;;;;12.44;45.66;99936.31;4929164;29;20027;-85
2021/01/24 11:26:37;;;;;;;7.18;3.40;;;;;;;12.17;46.02;99939.41;4911118;29;20044;-86
2021/01/24 11:29:03;;;;;;;8.30;4.47;;;;;;;11.94;46.81;99937.41;4928291;29;20043;-86
2021/01/24 11:31:30;;;;;;;5.82;3.25;;;;;;;11.59;47.64;99937.97;4925970;29;20046;-84
2021/01/24 11:33:56;;;;;;;7.90;5.72;;;;;;;11.26;47.56;99939.13;4928349;29;20153;-85